Lockridge, Iowa
Current Conditions -  °F | °C
As of 6:15 AM on Monday 20 Oct 2014 (Local Time) from KMPZ Reporting Station
Clear Clear  
Wind Chill: 47°   Ceiling: Unl
Heat Index: 50°   Visibility: 10mi
Dew Point: 45°   Wind: 7mph
Humidity: 83%   Direction: 300°WNW
Pressure: 29.92"   Gusts: NA
Location:  40.99°N, 91.75°W
Report Text: KMPZ 201115Z AUTO 30006KT 10SM CLR 10/07 A2992 RMK AO2 T00980070
Loading
Personal Weather Stations






























Interactive Weather Map
Tropical Storm Tracking
New forecast layout! Learn more

10-Day Weather Forecast

Advertisements
Track Severe Weather on mobile